Aviation Digital Data Service (ADDS)

Output produced by METARs form (1214 UTC 24 June 2017)
found at http://aviationweather.gov/adds/metars/
 
METAR text: KRNT 241153Z AUTO 00000KT 10SM CLR 14/11 A3014 RMK AO2 SLP211 T01440106 10206 20144 53002
Conditions at: KRNT (RENTON , WA, US) observed 1153 UTC 24 June 2017
Temperature: 14.4°C (58°F)
Dewpoint: 10.6°C (51°F) [RH = 78%]
Pressure (altimeter): 30.14 inches Hg (1020.7 mb)
[Sea-level pressure: 1021.1 mb]
Winds: calm
Visibility: 10 or more miles (16+ km)
Ceiling: at least 12,000 feet AGL
Clouds: sky clear below 12,000 feet AGL
Weather: automated observation with no human augmentation;
there may or may not be significant weather present at this time

METAR text: KRNT 241053Z AUTO 00000KT 10SM CLR 17/12 A3014 RMK AO2 SLP210 T01670122
Conditions at: KRNT (RENTON , WA, US) observed 1053 UTC 24 June 2017
Temperature: 16.7°C (62°F)
Dewpoint: 12.2°C (54°F) [RH = 75%]
Pressure (altimeter): 30.14 inches Hg (1020.7 mb)
[Sea-level pressure: 1021.0 mb]
Winds: calm
Visibility: 10 or more miles (16+ km)
Ceiling: at least 12,000 feet AGL
Clouds: sky clear below 12,000 feet AGL
Weather: automated observation with no human augmentation;
there may or may not be significant weather present at this time